sensor_id;sensor_type;location;lat;lon;timestamp;temperature;humidity
69418;DHT22;56610;48.872;2.400;2023-05-29T00:00:25;23.40;93.10
69418;DHT22;56610;48.872;2.400;2023-05-29T00:02:51;23.50;93.40
69418;DHT22;56610;48.872;2.400;2023-05-29T00:05:17;23.40;93.40
69418;DHT22;56610;48.872;2.400;2023-05-29T00:07:43;23.30;93.40
69418;DHT22;56610;48.872;2.400;2023-05-29T00:10:10;23.30;93.40
69418;DHT22;56610;48.872;2.400;2023-05-29T00:12:38;23.20;93.50
69418;DHT22;56610;48.872;2.400;2023-05-29T00:15:04;23.30;93.60
69418;DHT22;56610;48.872;2.400;2023-05-29T00:17:30;23.30;93.50
69418;DHT22;56610;48.872;2.400;2023-05-29T00:20:02;23.20;93.50
69418;DHT22;56610;48.872;2.400;2023-05-29T00:22:37;23.00;93.60
69418;DHT22;56610;48.872;2.400;2023-05-29T00:25:07;22.90;93.90
69418;DHT22;56610;48.872;2.400;2023-05-29T00:27:33;22.80;94.10
69418;DHT22;56610;48.872;2.400;2023-05-29T00:30:00;22.80;94.20
69418;DHT22;56610;48.872;2.400;2023-05-29T00:32:26;22.80;94.30
69418;DHT22;56610;48.872;2.400;2023-05-29T00:34:53;22.80;94.20
69418;DHT22;56610;48.872;2.400;2023-05-29T00:37:18;22.80;94.30
69418;DHT22;56610;48.872;2.400;2023-05-29T00:39:47;22.70;94.40
69418;DHT22;56610;48.872;2.400;2023-05-29T00:42:12;22.70;94.60
69418;DHT22;56610;48.872;2.400;2023-05-29T00:44:38;22.80;94.40
69418;DHT22;56610;48.872;2.400;2023-05-29T00:47:04;22.80;94.40
69418;DHT22;56610;48.872;2.400;2023-05-29T00:49:29;22.90;94.20
69418;DHT22;56610;48.872;2.400;2023-05-29T00:51:55;22.90;94.20
69418;DHT22;56610;48.872;2.400;2023-05-29T00:54:26;22.90;94.30
69418;DHT22;56610;48.872;2.400;2023-05-29T00:56:52;22.70;94.30
69418;DHT22;56610;48.872;2.400;2023-05-29T00:59:18;22.60;94.60
69418;DHT22;56610;48.872;2.400;2023-05-29T01:01:50;22.50;94.70
69418;DHT22;56610;48.872;2.400;2023-05-29T01:04:17;22.30;94.90
69418;DHT22;56610;48.872;2.400;2023-05-29T01:06:43;22.20;95.30
69418;DHT22;56610;48.872;2.400;2023-05-29T01:09:09;22.20;95.30
69418;DHT22;56610;48.872;2.400;2023-05-29T01:20:18;21.90;95.90
69418;DHT22;56610;48.872;2.400;2023-05-29T01:23:03;21.90;96.00
69418;DHT22;56610;48.872;2.400;2023-05-29T01:26:06;21.90;96.00
69418;DHT22;56610;48.872;2.400;2023-05-29T01:28:42;22.00;96.00
69418;DHT22;56610;48.872;2.400;2023-05-29T01:31:10;22.10;95.90
69418;DHT22;56610;48.872;2.400;2023-05-29T01:33:39;22.00;95.90
69418;DHT22;56610;48.872;2.400;2023-05-29T01:36:07;21.90;96.00
69418;DHT22;56610;48.872;2.400;2023-05-29T01:38:33;21.60;96.40
69418;DHT22;56610;48.872;2.400;2023-05-29T01:40:59;21.70;96.70
69418;DHT22;56610;48.872;2.400;2023-05-29T01:43:25;21.60;96.70
69418;DHT22;56610;48.872;2.400;2023-05-29T01:45:52;21.60;97.00
69418;DHT22;56610;48.872;2.400;2023-05-29T01:48:18;21.60;97.10
69418;DHT22;56610;48.872;2.400;2023-05-29T01:50:43;21.60;97.10
69418;DHT22;56610;48.872;2.400;2023-05-29T01:53:10;21.40;97.50
69418;DHT22;56610;48.872;2.400;2023-05-29T01:55:35;21.40;97.80
69418;DHT22;56610;48.872;2.400;2023-05-29T01:58:02;21.30;97.80
69418;DHT22;56610;48.872;2.400;2023-05-29T02:00:28;21.40;97.70
69418;DHT22;56610;48.872;2.400;2023-05-29T02:02:55;21.40;97.90
69418;DHT22;56610;48.872;2.400;2023-05-29T02:05:20;21.40;97.80
69418;DHT22;56610;48.872;2.400;2023-05-29T02:07:46;21.50;97.80
69418;DHT22;56610;48.872;2.400;2023-05-29T02:10:12;21.50;97.80
69418;DHT22;56610;48.872;2.400;2023-05-29T02:12:38;21.60;97.80
69418;DHT22;56610;48.872;2.400;2023-05-29T02:15:03;21.50;97.70
69418;DHT22;56610;48.872;2.400;2023-05-29T02:17:29;21.60;97.80
69418;DHT22;56610;48.872;2.400;2023-05-29T02:19:56;21.50;98.00
69418;DHT22;56610;48.872;2.400;2023-05-29T02:22:21;21.40;98.20
69418;DHT22;56610;48.872;2.400;2023-05-29T02:24:47;21.20;98.50
69418;DHT22;56610;48.872;2.400;2023-05-29T02:27:13;21.00;98.90
69418;DHT22;56610;48.872;2.400;2023-05-29T02:29:38;20.90;99.10
69418;DHT22;56610;48.872;2.400;2023-05-29T02:32:04;20.70;99.60
69418;DHT22;56610;48.872;2.400;2023-05-29T02:34:30;20.70;99.90
69418;DHT22;56610;48.872;2.400;2023-05-29T02:36:55;20.60;99.90
69418;DHT22;56610;48.872;2.400;2023-05-29T02:39:22;20.60;99.90
69418;DHT22;56610;48.872;2.400;2023-05-29T02:41:47;20.60;99.90
69418;DHT22;56610;48.872;2.400;2023-05-29T02:44:13;20.70;99.90
69418;DHT22;56610;48.872;2.400;2023-05-29T02:46:38;20.60;99.90
69418;DHT22;56610;48.872;2.400;2023-05-29T02:49:04;20.70;99.90
69418;DHT22;56610;48.872;2.400;2023-05-29T02:51:30;20.60;99.90
69418;DHT22;56610;48.872;2.400;2023-05-29T02:53:57;20.60;99.90
69418;DHT22;56610;48.872;2.400;2023-05-29T02:56:23;20.40;99.90
69418;DHT22;56610;48.872;2.400;2023-05-29T02:58:50;20.40;99.90
69418;DHT22;56610;48.872;2.400;2023-05-29T03:01:16;20.40;99.90
69418;DHT22;56610;48.872;2.400;2023-05-29T03:03:42;20.30;99.90
69418;DHT22;56610;48.872;2.400;2023-05-29T03:06:07;20.30;99.90
69418;DHT22;56610;48.872;2.400;2023-05-29T03:08:34;20.30;99.90
69418;DHT22;56610;48.872;2.400;2023-05-29T03:10:59;20.30;99.90
69418;DHT22;56610;48.872;2.400;2023-05-29T03:13:25;20.30;99.90
69418;DHT22;56610;48.872;2.400;2023-05-29T03:15:50;20.20;99.90
69418;DHT22;56610;48.872;2.400;2023-05-29T03:18:16;20.20;99.90
69418;DHT22;56610;48.872;2.400;2023-05-29T03:20:42;20.20;99.90
69418;DHT22;56610;48.872;2.400;2023-05-29T03:23:07;20.20;99.90
69418;DHT22;56610;48.872;2.400;2023-05-29T03:25:33;20.10;99.90
69418;DHT22;56610;48.872;2.400;2023-05-29T03:27:58;20.10;99.90
69418;DHT22;56610;48.872;2.400;2023-05-29T03:30:24;20.10;99.90
69418;DHT22;56610;48.872;2.400;2023-05-29T03:32:49;20.10;99.90
69418;DHT22;56610;48.872;2.400;2023-05-29T03:35:15;20.00;99.90
69418;DHT22;56610;48.872;2.400;2023-05-29T03:37:41;20.00;99.90
69418;DHT22;56610;48.872;2.400;2023-05-29T03:40:07;20.10;99.90
69418;DHT22;56610;48.872;2.400;2023-05-29T03:42:33;20.10;99.90
69418;DHT22;56610;48.872;2.400;2023-05-29T03:44:59;20.10;99.90
69418;DHT22;56610;48.872;2.400;2023-05-29T03:47:25;20.10;99.90
69418;DHT22;56610;48.872;2.400;2023-05-29T03:49:50;20.20;99.90
69418;DHT22;56610;48.872;2.400;2023-05-29T03:52:16;20.20;99.90
69418;DHT22;56610;48.872;2.400;2023-05-29T03:54:42;20.10;99.90
69418;DHT22;56610;48.872;2.400;2023-05-29T03:57:07;20.00;99.90
69418;DHT22;56610;48.872;2.400;2023-05-29T03:59:34;20.00;99.90
69418;DHT22;56610;48.872;2.400;2023-05-29T04:02:00;19.80;99.90
69418;DHT22;56610;48.872;2.400;2023-05-29T04:04:25;19.60;99.90
69418;DHT22;56610;48.872;2.400;2023-05-29T04:06:52;19.70;99.90
69418;DHT22;56610;48.872;2.400;2023-05-29T04:09:17;19.60;99.90
69418;DHT22;56610;48.872;2.400;2023-05-29T04:11:43;19.50;99.90
69418;DHT22;56610;48.872;2.400;2023-05-29T04:14:10;19.50;99.90
69418;DHT22;56610;48.872;2.400;2023-05-29T04:16:35;19.50;99.90
69418;DHT22;56610;48.872;2.400;2023-05-29T04:19:01;19.50;99.90
69418;DHT22;56610;48.872;2.400;2023-05-29T04:21:26;19.50;99.90
69418;DHT22;56610;48.872;2.400;2023-05-29T04:23:52;19.50;99.90
69418;DHT22;56610;48.872;2.400;2023-05-29T04:26:20;19.60;99.90
69418;DHT22;56610;48.872;2.400;2023-05-29T04:28:46;19.50;99.90
69418;DHT22;56610;48.872;2.400;2023-05-29T04:31:11;19.40;99.90
69418;DHT22;56610;48.872;2.400;2023-05-29T04:33:39;19.40;99.90
69418;DHT22;56610;48.872;2.400;2023-05-29T04:36:05;19.30;99.90
69418;DHT22;56610;48.872;2.400;2023-05-29T04:38:31;19.30;99.90
69418;DHT22;56610;48.872;2.400;2023-05-29T04:40:56;19.50;99.90
69418;DHT22;56610;48.872;2.400;2023-05-29T04:43:25;19.50;99.90
69418;DHT22;56610;48.872;2.400;2023-05-29T04:45:53;19.50;99.90
69418;DHT22;56610;48.872;2.400;2023-05-29T04:48:19;19.50;99.90
69418;DHT22;56610;48.872;2.400;2023-05-29T04:50:45;19.50;99.90
69418;DHT22;56610;48.872;2.400;2023-05-29T04:53:11;19.40;99.90
69418;DHT22;56610;48.872;2.400;2023-05-29T04:55:36;19.40;99.90
69418;DHT22;56610;48.872;2.400;2023-05-29T04:58:02;19.50;99.90
69418;DHT22;56610;48.872;2.400;2023-05-29T05:00:27;19.50;99.90
69418;DHT22;56610;48.872;2.400;2023-05-29T05:02:53;19.40;99.90
69418;DHT22;56610;48.872;2.400;2023-05-29T05:05:19;19.40;99.90
69418;DHT22;56610;48.872;2.400;2023-05-29T05:07:45;19.30;99.90
69418;DHT22;56610;48.872;2.400;2023-05-29T05:10:11;19.40;99.90
69418;DHT22;56610;48.872;2.400;2023-05-29T05:12:37;19.30;99.90
69418;DHT22;56610;48.872;2.400;2023-05-29T05:15:04;19.30;99.90
69418;DHT22;56610;48.872;2.400;2023-05-29T05:17:30;19.30;99.90
69418;DHT22;56610;48.872;2.400;2023-05-29T05:19:56;19.30;99.90
69418;DHT22;56610;48.872;2.400;2023-05-29T05:22:21;19.30;99.90
69418;DHT22;56610;48.872;2.400;2023-05-29T05:24:47;19.40;99.90
69418;DHT22;56610;48.872;2.400;2023-05-29T05:27:13;19.50;99.90
69418;DHT22;56610;48.872;2.400;2023-05-29T05:29:38;19.40;99.90
69418;DHT22;56610;48.872;2.400;2023-05-29T05:32:05;19.40;99.90
69418;DHT22;56610;48.872;2.400;2023-05-29T05:34:31;19.50;99.90
69418;DHT22;56610;48.872;2.400;2023-05-29T05:36:56;19.60;99.90
69418;DHT22;56610;48.872;2.400;2023-05-29T05:39:22;19.50;99.90
69418;DHT22;56610;48.872;2.400;2023-05-29T05:41:48;19.50;99.90
69418;DHT22;56610;48.872;2.400;2023-05-29T05:44:13;19.50;99.90
69418;DHT22;56610;48.872;2.400;2023-05-29T05:46:39;19.50;99.90
69418;DHT22;56610;48.872;2.400;2023-05-29T05:49:04;19.50;99.90
69418;DHT22;56610;48.872;2.400;2023-05-29T05:51:30;19.60;99.90
69418;DHT22;56610;48.872;2.400;2023-05-29T05:53:56;19.50;99.90
69418;DHT22;56610;48.872;2.400;2023-05-29T05:56:21;19.40;99.90
69418;DHT22;56610;48.872;2.400;2023-05-29T05:58:47;19.50;99.90
69418;DHT22;56610;48.872;2.400;2023-05-29T06:01:15;19.50;99.90
69418;DHT22;56610;48.872;2.400;2023-05-29T06:03:40;19.40;99.90
69418;DHT22;56610;48.872;2.400;2023-05-29T06:06:06;19.30;99.90
69418;DHT22;56610;48.872;2.400;2023-05-29T06:08:33;19.40;99.90
69418;DHT22;56610;48.872;2.400;2023-05-29T06:10:58;19.50;99.90
69418;DHT22;56610;48.872;2.400;2023-05-29T06:13:24;19.80;99.90
69418;DHT22;56610;48.872;2.400;2023-05-29T06:15:49;20.00;99.90
69418;DHT22;56610;48.872;2.400;2023-05-29T06:18:15;20.10;99.90
69418;DHT22;56610;48.872;2.400;2023-05-29T06:20:41;20.40;99.90
69418;DHT22;56610;48.872;2.400;2023-05-29T06:23:06;20.40;99.90
69418;DHT22;56610;48.872;2.400;2023-05-29T06:25:32;20.50;99.90
69418;DHT22;56610;48.872;2.400;2023-05-29T06:28:01;20.50;99.90
69418;DHT22;56610;48.872;2.400;2023-05-29T06:30:27;20.50;99.90
69418;DHT22;56610;48.872;2.400;2023-05-29T06:32:52;20.60;99.90
69418;DHT22;56610;48.872;2.400;2023-05-29T06:35:18;20.60;99.90
69418;DHT22;56610;48.872;2.400;2023-05-29T06:37:45;20.60;99.90
69418;DHT22;56610;48.872;2.400;2023-05-29T06:40:12;20.50;99.90
69418;DHT22;56610;48.872;2.400;2023-05-29T06:42:38;20.40;99.90
69418;DHT22;56610;48.872;2.400;2023-05-29T06:45:03;20.60;99.90
69418;DHT22;56610;48.872;2.400;2023-05-29T06:47:29;20.50;99.90
69418;DHT22;56610;48.872;2.400;2023-05-29T06:49:55;20.50;99.90
69418;DHT22;56610;48.872;2.400;2023-05-29T06:52:21;20.60;99.90
69418;DHT22;56610;48.872;2.400;2023-05-29T06:54:46;20.50;99.90
69418;DHT22;56610;48.872;2.400;2023-05-29T06:57:12;20.50;99.90
69418;DHT22;56610;48.872;2.400;2023-05-29T06:59:38;20.50;99.90
69418;DHT22;56610;48.872;2.400;2023-05-29T07:02:04;20.30;99.90
69418;DHT22;56610;48.872;2.400;2023-05-29T07:04:29;20.30;99.90
69418;DHT22;56610;48.872;2.400;2023-05-29T07:06:55;20.40;99.90
69418;DHT22;56610;48.872;2.400;2023-05-29T07:09:20;20.50;99.90
69418;DHT22;56610;48.872;2.400;2023-05-29T07:11:46;20.50;99.90
69418;DHT22;56610;48.872;2.400;2023-05-29T07:14:11;20.60;99.90
69418;DHT22;56610;48.872;2.400;2023-05-29T07:16:37;20.70;99.90
69418;DHT22;56610;48.872;2.400;2023-05-29T07:19:03;20.70;99.90
69418;DHT22;56610;48.872;2.400;2023-05-29T07:21:29;20.70;99.90
69418;DHT22;56610;48.872;2.400;2023-05-29T07:23:54;20.70;99.90
69418;DHT22;56610;48.872;2.400;2023-05-29T07:26:20;20.80;99.90
69418;DHT22;56610;48.872;2.400;2023-05-29T07:28:48;21.00;99.90
69418;DHT22;56610;48.872;2.400;2023-05-29T07:31:14;21.00;99.90
69418;DHT22;56610;48.872;2.400;2023-05-29T07:33:40;21.00;99.90
69418;DHT22;56610;48.872;2.400;2023-05-29T07:36:06;21.00;99.90
69418;DHT22;56610;48.872;2.400;2023-05-29T07:38:33;21.00;99.90
69418;DHT22;56610;48.872;2.400;2023-05-29T07:40:58;21.00;99.90
69418;DHT22;56610;48.872;2.400;2023-05-29T07:43:24;21.00;99.90
69418;DHT22;56610;48.872;2.400;2023-05-29T07:45:50;20.90;99.90
69418;DHT22;56610;48.872;2.400;2023-05-29T07:48:15;20.80;99.90
69418;DHT22;56610;48.872;2.400;2023-05-29T07:50:41;20.90;99.90
69418;DHT22;56610;48.872;2.400;2023-05-29T07:53:06;20.90;99.90
69418;DHT22;56610;48.872;2.400;2023-05-29T07:55:33;21.10;99.90
69418;DHT22;56610;48.872;2.400;2023-05-29T07:57:59;21.10;99.90
69418;DHT22;56610;48.872;2.400;2023-05-29T08:00:25;21.20;99.90
69418;DHT22;56610;48.872;2.400;2023-05-29T08:02:51;21.30;99.90
69418;DHT22;56610;48.872;2.400;2023-05-29T08:05:17;21.20;99.90
69418;DHT22;56610;48.872;2.400;2023-05-29T08:07:43;21.10;99.90
69418;DHT22;56610;48.872;2.400;2023-05-29T08:10:09;21.00;99.90
69418;DHT22;56610;48.872;2.400;2023-05-29T08:12:35;21.10;99.90
69418;DHT22;56610;48.872;2.400;2023-05-29T08:15:01;21.10;99.90
69418;DHT22;56610;48.872;2.400;2023-05-29T08:17:27;21.10;99.90
69418;DHT22;56610;48.872;2.400;2023-05-29T08:19:53;21.10;99.90
69418;DHT22;56610;48.872;2.400;2023-05-29T08:22:19;21.30;99.90
69418;DHT22;56610;48.872;2.400;2023-05-29T08:24:44;21.40;99.90
69418;DHT22;56610;48.872;2.400;2023-05-29T08:27:10;21.60;99.90
69418;DHT22;56610;48.872;2.400;2023-05-29T08:29:35;21.70;99.90
69418;DHT22;56610;48.872;2.400;2023-05-29T08:32:02;21.80;99.90
69418;DHT22;56610;48.872;2.400;2023-05-29T08:34:27;21.90;99.90
69418;DHT22;56610;48.872;2.400;2023-05-29T08:36:53;22.00;99.90
69418;DHT22;56610;48.872;2.400;2023-05-29T08:39:20;22.00;99.90
69418;DHT22;56610;48.872;2.400;2023-05-29T08:44:30;21.80;99.90
69418;DHT22;56610;48.872;2.400;2023-05-29T08:46:57;21.80;99.90
69418;DHT22;56610;48.872;2.400;2023-05-29T08:49:27;21.90;99.90
69418;DHT22;56610;48.872;2.400;2023-05-29T08:52:08;21.90;99.90
69418;DHT22;56610;48.872;2.400;2023-05-29T08:54:34;21.70;99.90
69418;DHT22;56610;48.872;2.400;2023-05-29T08:57:00;21.70;99.90
69418;DHT22;56610;48.872;2.400;2023-05-29T08:59:27;21.70;99.90
69418;DHT22;56610;48.872;2.400;2023-05-29T09:01:54;21.80;99.90
69418;DHT22;56610;48.872;2.400;2023-05-29T09:04:21;22.00;99.90
69418;DHT22;56610;48.872;2.400;2023-05-29T09:06:48;22.10;99.90
69418;DHT22;56610;48.872;2.400;2023-05-29T09:09:14;22.30;99.90
69418;DHT22;56610;48.872;2.400;2023-05-29T09:11:40;22.30;99.90
69418;DHT22;56610;48.872;2.400;2023-05-29T09:14:17;22.30;99.90
69418;DHT22;56610;48.872;2.400;2023-05-29T09:16:56;22.40;99.90
69418;DHT22;56610;48.872;2.400;2023-05-29T09:19:22;22.20;99.90
69418;DHT22;56610;48.872;2.400;2023-05-29T09:21:48;22.40;99.90
69418;DHT22;56610;48.872;2.400;2023-05-29T09:24:14;22.40;99.90
69418;DHT22;56610;48.872;2.400;2023-05-29T09:26:50;22.50;99.90
69418;DHT22;56610;48.872;2.400;2023-05-29T09:29:16;22.60;99.90
69418;DHT22;56610;48.872;2.400;2023-05-29T09:31:48;22.60;99.90
69418;DHT22;56610;48.872;2.400;2023-05-29T09:34:14;22.80;99.90
69418;DHT22;56610;48.872;2.400;2023-05-29T09:36:39;23.00;99.90
69418;DHT22;56610;48.872;2.400;2023-05-29T09:39:06;23.00;99.90
69418;DHT22;56610;48.872;2.400;2023-05-29T09:41:41;23.00;99.90
69418;DHT22;56610;48.872;2.400;2023-05-29T09:44:06;23.20;99.90
69418;DHT22;56610;48.872;2.400;2023-05-29T09:46:35;23.30;99.90
69418;DHT22;56610;48.872;2.400;2023-05-29T09:49:02;23.40;99.90
69418;DHT22;56610;48.872;2.400;2023-05-29T09:51:28;23.30;99.90
69418;DHT22;56610;48.872;2.400;2023-05-29T09:53:54;23.40;99.90
69418;DHT22;56610;48.872;2.400;2023-05-29T09:56:23;23.60;99.90
69418;DHT22;56610;48.872;2.400;2023-05-29T09:58:51;23.60;99.90
69418;DHT22;56610;48.872;2.400;2023-05-29T10:01:18;23.60;99.90
69418;DHT22;56610;48.872;2.400;2023-05-29T10:03:44;23.50;99.90
69418;DHT22;56610;48.872;2.400;2023-05-29T10:06:11;23.50;99.90
69418;DHT22;56610;48.872;2.400;2023-05-29T10:08:45;23.50;99.90
69418;DHT22;56610;48.872;2.400;2023-05-29T10:11:20;23.60;99.90
69418;DHT22;56610;48.872;2.400;2023-05-29T10:13:51;23.80;99.90
69418;DHT22;56610;48.872;2.400;2023-05-29T10:16:20;23.80;99.90
69418;DHT22;56610;48.872;2.400;2023-05-29T10:18:56;23.90;99.90
69418;DHT22;56610;48.872;2.400;2023-05-29T10:21:26;24.10;99.80
69418;DHT22;56610;48.872;2.400;2023-05-29T10:23:52;24.00;99.90
69418;DHT22;56610;48.872;2.400;2023-05-29T10:26:24;24.00;99.90
69418;DHT22;56610;48.872;2.400;2023-05-29T10:37:39;24.10;99.80
69418;DHT22;56610;48.872;2.400;2023-05-29T10:40:07;24.10;99.80
69418;DHT22;56610;48.872;2.400;2023-05-29T10:45:07;24.10;99.60
69418;DHT22;56610;48.872;2.400;2023-05-29T10:47:33;24.00;99.80
69418;DHT22;56610;48.872;2.400;2023-05-29T10:50:02;23.90;99.80
69418;DHT22;56610;48.872;2.400;2023-05-29T10:52:33;24.10;99.60
69418;DHT22;56610;48.872;2.400;2023-05-29T10:54:59;24.30;99.40
69418;DHT22;56610;48.872;2.400;2023-05-29T10:57:29;24.60;99.40
69418;DHT22;56610;48.872;2.400;2023-05-29T11:00:06;24.50;99.20
69418;DHT22;56610;48.872;2.400;2023-05-29T11:02:36;24.70;99.30
69418;DHT22;56610;48.872;2.400;2023-05-29T11:05:21;24.90;99.10
69418;DHT22;56610;48.872;2.400;2023-05-29T11:07:51;25.00;98.60
69418;DHT22;56610;48.872;2.400;2023-05-29T11:13:35;25.50;98.50
69418;DHT22;56610;48.872;2.400;2023-05-29T11:16:11;25.90;98.00
69418;DHT22;56610;48.872;2.400;2023-05-29T11:18:45;26.30;97.80
69418;DHT22;56610;48.872;2.400;2023-05-29T11:23:53;27.00;96.30
69418;DHT22;56610;48.872;2.400;2023-05-29T11:26:21;27.40;96.00
69418;DHT22;56610;48.872;2.400;2023-05-29T11:28:48;27.70;95.70
69418;DHT22;56610;48.872;2.400;2023-05-29T11:31:15;27.90;95.60
69418;DHT22;56610;48.872;2.400;2023-05-29T11:33:47;28.10;95.10
69418;DHT22;56610;48.872;2.400;2023-05-29T11:36:21;28.30;95.00
69418;DHT22;56610;48.872;2.400;2023-05-29T11:38:46;28.40;94.10
69418;DHT22;56610;48.872;2.400;2023-05-29T11:41:13;28.40;94.00
69418;DHT22;56610;48.872;2.400;2023-05-29T11:43:38;28.50;93.70
69418;DHT22;56610;48.872;2.400;2023-05-29T11:46:19;28.50;93.50
69418;DHT22;56610;48.872;2.400;2023-05-29T11:48:46;28.40;93.80
69418;DHT22;56610;48.872;2.400;2023-05-29T11:51:12;28.60;93.50
69418;DHT22;56610;48.872;2.400;2023-05-29T11:53:41;28.50;93.30
69418;DHT22;56610;48.872;2.400;2023-05-29T11:56:08;28.50;92.80
69418;DHT22;56610;48.872;2.400;2023-05-29T11:58:36;28.60;92.60
69418;DHT22;56610;48.872;2.400;2023-05-29T12:01:03;28.40;92.60
69418;DHT22;56610;48.872;2.400;2023-05-29T12:03:28;28.40;92.90
69418;DHT22;56610;48.872;2.400;2023-05-29T12:05:54;28.20;93.10
69418;DHT22;56610;48.872;2.400;2023-05-29T12:08:24;28.10;92.80
69418;DHT22;56610;48.872;2.400;2023-05-29T12:10:52;28.00;92.60
69418;DHT22;56610;48.872;2.400;2023-05-29T12:13:21;28.10;92.50
69418;DHT22;56610;48.872;2.400;2023-05-29T12:15:48;28.20;92.60
69418;DHT22;56610;48.872;2.400;2023-05-29T12:18:14;28.40;92.30
69418;DHT22;56610;48.872;2.400;2023-05-29T12:20:40;28.40;92.20
69418;DHT22;56610;48.872;2.400;2023-05-29T12:23:06;28.30;91.90
69418;DHT22;56610;48.872;2.400;2023-05-29T12:25:34;28.30;91.60
69418;DHT22;56610;48.872;2.400;2023-05-29T12:28:02;28.40;91.60
69418;DHT22;56610;48.872;2.400;2023-05-29T12:30:27;28.50;91.70
69418;DHT22;56610;48.872;2.400;2023-05-29T12:32:53;28.70;91.50
69418;DHT22;56610;48.872;2.400;2023-05-29T12:35:27;29.00;90.70
69418;DHT22;56610;48.872;2.400;2023-05-29T12:40:24;29.20;90.60
69418;DHT22;56610;48.872;2.400;2023-05-29T12:43:01;29.30;90.60
69418;DHT22;56610;48.872;2.400;2023-05-29T12:45:29;29.50;90.60
69418;DHT22;56610;48.872;2.400;2023-05-29T12:48:03;29.50;90.80
69418;DHT22;56610;48.872;2.400;2023-05-29T12:50:33;29.60;90.60
69418;DHT22;56610;48.872;2.400;2023-05-29T12:53:03;29.70;90.90
69418;DHT22;56610;48.872;2.400;2023-05-29T12:55:34;29.90;90.00
69418;DHT22;56610;48.872;2.400;2023-05-29T12:58:03;30.00;89.90
69418;DHT22;56610;48.872;2.400;2023-05-29T13:00:28;30.00;90.40
69418;DHT22;56610;48.872;2.400;2023-05-29T13:02:55;30.10;89.70
69418;DHT22;56610;48.872;2.400;2023-05-29T13:05:21;30.30;89.30
69418;DHT22;56610;48.872;2.400;2023-05-29T13:07:49;30.50;88.30
69418;DHT22;56610;48.872;2.400;2023-05-29T13:10:16;30.50;88.20
69418;DHT22;56610;48.872;2.400;2023-05-29T13:12:42;30.70;88.30
69418;DHT22;56610;48.872;2.400;2023-05-29T13:15:09;30.90;88.40
69418;DHT22;56610;48.872;2.400;2023-05-29T13:17:35;31.10;87.10
69418;DHT22;56610;48.872;2.400;2023-05-29T13:20:00;31.40;87.50
69418;DHT22;56610;48.872;2.400;2023-05-29T13:22:26;31.30;86.30
69418;DHT22;56610;48.872;2.400;2023-05-29T13:24:59;31.40;86.00
69418;DHT22;56610;48.872;2.400;2023-05-29T13:27:25;31.60;85.70
69418;DHT22;56610;48.872;2.400;2023-05-29T13:29:52;31.90;85.50
69418;DHT22;56610;48.872;2.400;2023-05-29T13:32:17;31.90;84.20
69418;DHT22;56610;48.872;2.400;2023-05-29T13:34:43;31.80;84.80
69418;DHT22;56610;48.872;2.400;2023-05-29T13:37:08;31.80;84.40
69418;DHT22;56610;48.872;2.400;2023-05-29T13:39:34;31.70;84.20
69418;DHT22;56610;48.872;2.400;2023-05-29T13:42:00;31.80;84.20
69418;DHT22;56610;48.872;2.400;2023-05-29T13:44:25;31.80;84.10
69418;DHT22;56610;48.872;2.400;2023-05-29T13:46:51;31.80;83.40
69418;DHT22;56610;48.872;2.400;2023-05-29T13:49:17;31.70;84.00
69418;DHT22;56610;48.872;2.400;2023-05-29T13:51:42;31.60;83.90
69418;DHT22;56610;48.872;2.400;2023-05-29T13:54:10;31.70;83.40
69418;DHT22;56610;48.872;2.400;2023-05-29T13:56:36;32.00;83.70
69418;DHT22;56610;48.872;2.400;2023-05-29T13:59:01;32.20;84.60
69418;DHT22;56610;48.872;2.400;2023-05-29T14:01:30;32.20;83.30
69418;DHT22;56610;48.872;2.400;2023-05-29T14:03:56;32.30;83.30
69418;DHT22;56610;48.872;2.400;2023-05-29T14:06:21;32.20;82.60
69418;DHT22;56610;48.872;2.400;2023-05-29T14:08:47;32.20;82.80
69418;DHT22;56610;48.872;2.400;2023-05-29T14:11:13;32.40;83.30
69418;DHT22;56610;48.872;2.400;2023-05-29T14:13:38;32.20;82.70
69418;DHT22;56610;48.872;2.400;2023-05-29T14:16:04;32.10;82.80
69418;DHT22;56610;48.872;2.400;2023-05-29T14:18:29;32.20;82.70
69418;DHT22;56610;48.872;2.400;2023-05-29T14:20:55;32.20;82.10
69418;DHT22;56610;48.872;2.400;2023-05-29T14:23:20;32.20;83.00
69418;DHT22;56610;48.872;2.400;2023-05-29T14:25:46;32.20;83.30
69418;DHT22;56610;48.872;2.400;2023-05-29T14:28:13;32.40;83.10
69418;DHT22;56610;48.872;2.400;2023-05-29T14:30:39;32.50;83.30
69418;DHT22;56610;48.872;2.400;2023-05-29T14:33:04;32.70;83.40
69418;DHT22;56610;48.872;2.400;2023-05-29T14:35:30;32.50;81.60
69418;DHT22;56610;48.872;2.400;2023-05-29T14:37:57;32.20;82.10
69418;DHT22;56610;48.872;2.400;2023-05-29T14:40:22;32.20;83.10
69418;DHT22;56610;48.872;2.400;2023-05-29T14:42:48;32.20;82.20
69418;DHT22;56610;48.872;2.400;2023-05-29T14:45:13;32.20;82.50
69418;DHT22;56610;48.872;2.400;2023-05-29T14:47:40;32.20;81.80
69418;DHT22;56610;48.872;2.400;2023-05-29T14:50:06;32.10;81.60
69418;DHT22;56610;48.872;2.400;2023-05-29T14:52:33;32.00;82.30
69418;DHT22;56610;48.872;2.400;2023-05-29T14:55:06;32.20;82.30
69418;DHT22;56610;48.872;2.400;2023-05-29T14:57:32;32.40;82.10
69418;DHT22;56610;48.872;2.400;2023-05-29T15:00:00;32.30;80.40
69418;DHT22;56610;48.872;2.400;2023-05-29T15:02:25;32.30;81.00
69418;DHT22;56610;48.872;2.400;2023-05-29T15:04:51;32.30;82.30
69418;DHT22;56610;48.872;2.400;2023-05-29T15:07:17;32.40;81.40
69418;DHT22;56610;48.872;2.400;2023-05-29T15:09:43;32.40;81.60
69418;DHT22;56610;48.872;2.400;2023-05-29T15:12:09;32.30;81.70
69418;DHT22;56610;48.872;2.400;2023-05-29T15:14:35;32.20;82.30
69418;DHT22;56610;48.872;2.400;2023-05-29T15:17:03;32.10;82.80
69418;DHT22;56610;48.872;2.400;2023-05-29T15:19:29;32.10;82.70
69418;DHT22;56610;48.872;2.400;2023-05-29T15:21:56;32.00;83.00
69418;DHT22;56610;48.872;2.400;2023-05-29T15:24:21;32.20;82.50
69418;DHT22;56610;48.872;2.400;2023-05-29T15:26:47;32.20;81.90
69418;DHT22;56610;48.872;2.400;2023-05-29T15:29:12;32.30;82.50
69418;DHT22;56610;48.872;2.400;2023-05-29T15:31:38;32.20;81.60
69418;DHT22;56610;48.872;2.400;2023-05-29T15:34:04;31.90;82.10
69418;DHT22;56610;48.872;2.400;2023-05-29T15:36:29;31.80;82.20
69418;DHT22;56610;48.872;2.400;2023-05-29T15:38:55;31.70;82.40
69418;DHT22;56610;48.872;2.400;2023-05-29T15:41:21;31.50;82.50
69418;DHT22;56610;48.872;2.400;2023-05-29T15:43:46;31.60;82.30
69418;DHT22;56610;48.872;2.400;2023-05-29T15:46:12;31.40;82.60
69418;DHT22;56610;48.872;2.400;2023-05-29T15:48:38;31.30;82.40
69418;DHT22;56610;48.872;2.400;2023-05-29T15:51:03;31.30;82.30
69418;DHT22;56610;48.872;2.400;2023-05-29T15:53:29;31.20;82.30
69418;DHT22;56610;48.872;2.400;2023-05-29T15:55:55;31.10;83.20
69418;DHT22;56610;48.872;2.400;2023-05-29T15:58:20;31.00;83.50